createdAt,value
2023-03-29T00:25:12.739Z,67.90
2023-03-29T00:30:16.539Z,67.30
2023-03-29T00:35:19.654Z,67.10
2023-03-29T00:40:23.781Z,67.00
2023-03-29T00:45:28.357Z,68.00
2023-03-29T00:50:37.070Z,67.50
2023-03-29T00:55:48.799Z,67.90
2023-03-29T01:00:59.335Z,68.50
2023-03-29T01:06:07.265Z,68.30
2023-03-29T01:11:18.361Z,68.60
2023-03-29T01:16:23.278Z,68.20
2023-03-29T01:21:32.988Z,68.60
2023-03-29T01:26:50.910Z,68.20
2023-03-29T01:32:00.698Z,67.90
2023-03-29T01:37:11.061Z,67.80
2023-03-29T01:42:41.509Z,68.10
2023-03-29T01:47:59.070Z,68.50
2023-03-29T01:53:10.116Z,68.50
2023-03-29T01:58:16.472Z,68.10
2023-03-29T02:03:24.703Z,68.10
2023-03-29T02:08:29.832Z,68.90
2023-03-29T02:13:33.630Z,68.60
2023-03-29T02:18:38.559Z,69.20
2023-03-29T02:23:45.518Z,69.10
2023-03-29T02:28:48.877Z,69.80
2023-03-29T02:33:58.661Z,69.70
2023-03-29T02:39:04.616Z,69.30
2023-03-29T02:44:13.141Z,69.40
2023-03-29T02:49:18.313Z,69.90
2023-03-29T02:54:25.402Z,70.20
2023-03-29T02:59:29.776Z,70.20
2023-03-29T03:04:33.834Z,69.60
2023-03-29T03:09:37.327Z,70.20
2023-03-29T03:14:40.079Z,70.00
2023-03-29T03:19:44.185Z,70.20
2023-03-29T03:24:46.759Z,69.60
2023-03-29T03:29:49.693Z,69.40
2023-03-29T03:34:53.757Z,69.40
2023-03-29T03:40:01.610Z,69.30
2023-03-29T03:45:07.914Z,68.90
2023-03-29T03:50:20.883Z,68.90
2023-03-29T03:55:23.966Z,69.10
2023-03-29T04:00:44.781Z,69.10
2023-03-29T04:06:12.726Z,69.20
2023-03-29T04:11:47.510Z,69.00
2023-03-29T04:16:50.116Z,68.90
2023-03-29T04:22:12.435Z,69.10
2023-03-29T04:27:15.028Z,69.40
2023-03-29T04:32:17.734Z,69.50
2023-03-29T04:37:33.845Z,68.80
2023-03-29T04:42:37.608Z,69.50
2023-03-29T04:47:42.740Z,69.90
2023-03-29T04:52:52.593Z,70.30
2023-03-29T04:57:56.646Z,70.30
2023-03-29T05:03:06.677Z,70.10
2023-03-29T05:08:14.923Z,70.00
2023-03-29T05:13:40.252Z,69.70
2023-03-29T05:18:42.962Z,70.10
2023-03-29T05:23:48.280Z,69.30
2023-03-29T05:29:23.727Z,69.10
2023-03-29T05:34:34.885Z,69.20
2023-03-29T05:39:40.216Z,69.20
2023-03-29T05:44:43.486Z,69.10
2023-03-29T05:49:53.995Z,68.30
2023-03-29T05:55:02.312Z,69.30
2023-03-29T06:00:08.017Z,68.00
2023-03-29T06:05:22.449Z,67.10
2023-03-29T06:10:48.167Z,67.50
2023-03-29T06:16:09.699Z,66.40
2023-03-29T06:21:13.648Z,65.60
2023-03-29T06:26:18.208Z,64.90
2023-03-29T06:31:22.626Z,65.40
2023-03-29T06:36:29.702Z,62.30
2023-03-29T06:41:34.004Z,66.20
2023-03-29T06:46:50.151Z,64.90
2023-03-29T06:51:56.388Z,63.50
2023-03-29T06:57:03.072Z,60.50
2023-03-29T07:02:10.218Z,59.60
2023-03-29T07:07:28.329Z,59.20
2023-03-29T07:12:45.780Z,59.80
2023-03-29T07:17:54.330Z,59.30
2023-03-29T07:22:58.103Z,58.10
2023-03-29T07:28:03.203Z,56.20
2023-03-29T07:33:05.942Z,56.40
2023-03-29T07:38:15.667Z,55.90
2023-03-29T07:43:26.173Z,53.60
2023-03-29T07:48:29.708Z,49.80
2023-03-29T07:53:38.330Z,51.50
2023-03-29T07:58:49.597Z,51.00
2023-03-29T08:03:54.228Z,50.50
2023-03-29T08:09:06.695Z,49.40
2023-03-29T08:14:11.138Z,48.10
2023-03-29T08:19:27.660Z,45.90
2023-03-29T08:24:42.620Z,46.60
2023-03-29T08:29:50.287Z,44.70
2023-03-29T08:34:55.917Z,46.70
2023-03-29T08:40:14.215Z,46.00
2023-03-29T08:45:51.006Z,45.70
2023-03-29T08:51:03.365Z,45.40
2023-03-29T08:56:19.570Z,45.70
2023-03-29T09:02:13.456Z,42.40
2023-03-29T09:07:16.998Z,43.30
2023-03-29T09:12:39.911Z,42.10
2023-03-29T09:17:59.428Z,42.70
2023-03-29T09:23:26.430Z,39.90
2023-03-29T09:29:01.812Z,40.30
2023-03-29T09:34:23.881Z,41.70
2023-03-29T09:39:36.554Z,41.30
2023-03-29T09:44:52.014Z,41.50
2023-03-29T09:50:16.643Z,40.10
2023-03-29T09:55:35.553Z,40.90
2023-03-29T10:00:46.797Z,41.50
2023-03-29T10:05:57.035Z,40.20
2023-03-29T10:11:08.969Z,40.20
2023-03-29T10:16:21.576Z,41.90
2023-03-29T10:21:31.450Z,41.70
2023-03-29T10:26:38.593Z,40.60
2023-03-29T10:31:43.497Z,42.00
2023-03-29T10:36:58.323Z,42.10
2023-03-29T10:42:06.239Z,43.40
2023-03-29T10:47:16.456Z,41.60
2023-03-29T10:52:22.313Z,43.70
2023-03-29T10:57:43.687Z,43.20
2023-03-29T11:03:24.735Z,42.60
2023-03-29T11:08:56.994Z,41.60
2023-03-29T11:14:11.380Z,42.90
2023-03-29T11:19:54.633Z,42.90
2023-03-29T11:25:23.709Z,43.10
2023-03-29T11:30:37.838Z,44.20
2023-03-29T11:35:52.313Z,42.80
2023-03-29T11:41:08.397Z,43.00
2023-03-29T11:46:19.027Z,43.20
2023-03-29T11:51:29.011Z,43.30
2023-03-29T11:56:40.548Z,41.80
2023-03-29T12:01:52.879Z,42.60
2023-03-29T12:07:11.687Z,42.00
2023-03-29T12:12:25.920Z,42.50
2023-03-29T12:17:37.410Z,41.80
2023-03-29T12:22:41.184Z,42.40
2023-03-29T12:28:02.774Z,42.70
2023-03-29T12:33:41.870Z,42.10
2023-03-29T12:38:56.722Z,40.60
2023-03-29T12:44:23.934Z,41.30
2023-03-29T12:49:38.939Z,40.80
2023-03-29T12:54:41.456Z,40.50
2023-03-29T12:59:48.710Z,40.40
2023-03-29T13:04:57.668Z,40.60
2023-03-29T13:10:02.505Z,41.50
2023-03-29T13:15:23.301Z,40.70
2023-03-29T13:20:45.873Z,40.70
2023-03-29T13:26:19.499Z,38.90
2023-03-29T13:31:35.259Z,39.40
2023-03-29T13:37:01.494Z,40.20
2023-03-29T13:42:19.284Z,39.50
2023-03-29T13:47:58.237Z,39.60
2023-03-29T13:53:15.812Z,38.80
2023-03-29T13:58:32.355Z,38.70
2023-03-29T14:03:44.245Z,40.40
2023-03-29T14:08:49.086Z,39.80
2023-03-29T14:13:57.281Z,39.90
2023-03-29T14:19:04.858Z,39.20
2023-03-29T14:24:13.192Z,39.30
2023-03-29T14:29:16.050Z,39.40
2023-03-29T14:34:20.339Z,40.10
2023-03-29T14:39:23.488Z,40.20
2023-03-29T14:44:30.794Z,40.50
2023-03-29T14:49:34.924Z,40.70
2023-03-29T14:54:48.144Z,40.80
2023-03-29T14:59:54.952Z,40.50
2023-03-29T15:05:02.358Z,40.10
2023-03-29T15:10:06.582Z,40.00
2023-03-29T15:15:12.805Z,40.70
2023-03-29T15:20:24.410Z,40.60
2023-03-29T15:25:32.597Z,40.80
2023-03-29T15:30:39.486Z,40.80
2023-03-29T15:35:49.157Z,40.80
2023-03-29T15:40:51.588Z,41.20
2023-03-29T15:45:54.097Z,41.30
2023-03-29T15:51:01.508Z,40.60
2023-03-29T15:56:08.633Z,42.00
2023-03-29T16:01:22.867Z,41.40
2023-03-29T16:06:26.968Z,41.10
2023-03-29T16:11:29.679Z,41.00
2023-03-29T16:16:32.060Z,41.10
2023-03-29T16:21:36.230Z,41.80
2023-03-29T16:26:38.671Z,42.10
2023-03-29T16:31:44.105Z,42.30
2023-03-29T16:36:49.461Z,42.60
2023-03-29T16:41:52.180Z,42.60
2023-03-29T16:46:54.864Z,43.00
2023-03-29T16:51:58.950Z,43.20
2023-03-29T16:57:04.340Z,43.40
2023-03-29T17:02:06.756Z,43.60
2023-03-29T17:07:10.617Z,43.90
2023-03-29T17:12:15.919Z,43.90
2023-03-29T17:17:19.010Z,44.30
2023-03-29T17:22:23.302Z,44.60
2023-03-29T17:27:28.691Z,44.70
2023-03-29T17:32:31.198Z,44.90
2023-03-29T17:37:35.601Z,45.10
2023-03-29T17:42:41.361Z,45.20
2023-03-29T17:47:44.085Z,45.40
2023-03-29T17:52:48.518Z,45.60
2023-03-29T17:57:53.703Z,45.60
2023-03-29T18:02:56.425Z,45.70
2023-03-29T18:08:00.602Z,46.00
2023-03-29T18:13:03.716Z,46.00
2023-03-29T18:18:06.622Z,46.20
2023-03-29T18:23:10.713Z,46.30
2023-03-29T18:28:13.449Z,46.50
2023-03-29T18:33:18.966Z,46.70
2023-03-29T18:38:23.139Z,46.60
2023-03-29T18:43:25.585Z,46.80
2023-03-29T18:48:28.186Z,46.90
2023-03-29T18:53:32.136Z,46.90
2023-03-29T18:58:35.617Z,46.90
2023-03-29T19:03:38.365Z,47.30
2023-03-29T19:08:42.693Z,47.70
2023-03-29T19:13:45.130Z,47.80
2023-03-29T19:18:47.593Z,47.90
2023-03-29T19:23:52.040Z,48.10
2023-03-29T19:28:54.499Z,48.40
2023-03-29T19:33:56.950Z,48.40
2023-03-29T19:39:00.877Z,48.50
2023-03-29T19:44:03.937Z,48.80
2023-03-29T19:49:06.904Z,49.00
2023-03-29T19:54:11.814Z,49.50
2023-03-29T19:59:14.294Z,49.50
2023-03-29T20:04:17.357Z,49.60
2023-03-29T20:09:21.377Z,50.00
2023-03-29T20:14:23.869Z,50.20
2023-03-29T20:19:26.483Z,50.60
2023-03-29T20:24:30.700Z,51.00
2023-03-29T20:29:33.178Z,51.10
2023-03-29T20:34:36.051Z,50.90
2023-03-29T20:39:40.086Z,50.90
2023-03-29T20:44:42.638Z,50.90
2023-03-29T20:49:47.782Z,50.80
2023-03-29T20:54:52.147Z,50.80
2023-03-29T20:59:54.522Z,50.80
2023-03-29T21:04:56.891Z,50.90
2023-03-29T21:10:00.796Z,51.20
2023-03-29T21:15:03.718Z,51.10
2023-03-29T21:20:08.812Z,51.50
2023-03-29T21:25:13.952Z,51.60
2023-03-29T21:30:16.643Z,52.00
2023-03-29T21:35:22.144Z,52.30
2023-03-29T21:40:25.997Z,52.60
2023-03-29T21:45:28.553Z,52.70
2023-03-29T21:50:34.252Z,52.70
2023-03-29T21:55:38.104Z,52.80
2023-03-29T22:00:41.015Z,52.80
2023-03-29T22:05:43.730Z,53.00
2023-03-29T22:10:48.084Z,53.20
2023-03-29T22:15:56.454Z,53.20
2023-03-29T22:20:58.868Z,53.60
2023-03-29T22:26:06.566Z,53.70
2023-03-29T22:31:12.121Z,53.90
2023-03-29T22:36:17.743Z,54.20
2023-03-29T22:41:24.539Z,54.40
2023-03-29T22:46:27.785Z,54.80
2023-03-29T22:51:30.630Z,55.10
2023-03-29T22:56:34.964Z,55.20
2023-03-29T23:01:37.663Z,55.40
2023-03-29T23:06:40.514Z,55.30
2023-03-29T23:11:44.336Z,55.80
2023-03-29T23:16:46.880Z,55.90
2023-03-29T23:21:49.422Z,56.20
2023-03-29T23:26:53.333Z,56.20
2023-03-29T23:31:55.982Z,56.40
2023-03-29T23:36:58.768Z,56.50
2023-03-29T23:42:03.102Z,56.70
2023-03-29T23:47:08.474Z,57.20
2023-03-29T23:52:11.143Z,57.30
2023-03-29T23:57:15.001Z,57.30
